Brookton, Maine
Current Conditions -  °F | °C
As of 6:53 AM on Monday 20 Oct 2014 (Local Time) from KHUL Reporting Station
Overcast Overcast  
Wind Chill: 30°   Ceiling: 3000
Heat Index: 37°   Visibility: 10mi
Dew Point: 27°   Wind: 9mph
Humidity: 67%   Direction: 300°WNW
Pressure: 29.78"   Gusts: NA
Location:  45.53°N, 67.76°W
Report Text: KHUL 201053Z AUTO 30008KT 10SM OVC030 03/M03 A2978 RMK AO2 SNB11E21 SLP090 P0000 T00281028
Loading
Personal Weather Stations






























Interactive Weather Map
Tropical Storm Tracking
New forecast layout! Learn more

10-Day Weather Forecast

Advertisements
Track Severe Weather on mobile